Time;durP1;ratioP1;P1;durP2;ratioP2;P2;SDS_P1;SDS_P2;PMS_P1;PMS_P2;Temp;Humidity;BMP_temperature;BMP_pressure;BME280_temperature;BME280_humidity;BME280_pressure;Samples;Min_cycle;Max_cycle;Signal;HPM_P1;HPM_P2
2023/08/20 00:02:10;;;;;;;6.35;5.95;;;;;;;21.74;63.93;64253.03;5063506;28;20200;-80
2023/08/20 00:04:38;;;;;;;7.53;6.78;;;;;;;21.84;63.22;64257.78;5057729;28;20234;-79
2023/08/20 00:07:07;;;;;;;6.55;5.88;;;;;;;21.86;63.13;64259.88;5070779;28;20255;-78
2023/08/20 00:09:36;;;;;;;6.88;5.72;;;;;;;22.01;62.25;64278.16;5063212;28;20224;-79
2023/08/20 00:12:05;;;;;;;6.43;5.93;;;;;;;22.07;62.01;64286.50;5067190;28;20209;-80
2023/08/20 00:14:55;;;;;;;6.32;5.78;;;;;;;22.04;61.78;64283.88;5064505;28;20236;-78
2023/08/20 00:17:24;;;;;;;9.43;6.72;;;;;;;22.08;62.07;64290.13;5059067;28;20276;-79
2023/08/20 00:19:52;;;;;;;6.93;6.32;;;;;;;22.17;61.19;64294.34;5060018;28;20224;-81
2023/08/20 00:22:22;;;;;;;7.10;6.50;;;;;;;22.10;61.30;64290.16;5063050;28;20203;-80
2023/08/20 00:24:51;;;;;;;7.07;6.47;;;;;;;22.08;62.20;64284.94;5065093;28;20227;-80
2023/08/20 00:27:18;;;;;;;6.10;5.70;;;;;;;22.07;61.50;64283.91;5064075;28;20295;-79
2023/08/20 00:29:46;;;;;;;8.55;6.03;;;;;;;22.05;61.94;64281.81;5067574;28;20280;-79
2023/08/20 00:32:13;;;;;;;6.72;6.20;;;;;;;22.08;61.43;64282.34;5063659;28;20228;-78
2023/08/20 00:34:41;;;;;;;8.55;6.80;;;;;;;22.07;61.88;64287.00;5069495;28;20452;-80
2023/08/20 00:37:08;;;;;;;6.97;6.43;;;;;;;22.03;61.85;64279.72;5064014;28;20210;-79
2023/08/20 00:39:35;;;;;;;9.25;6.22;;;;;;;21.98;62.31;64277.09;5065136;28;20240;-79
2023/08/20 00:42:04;;;;;;;6.72;6.10;;;;;;;22.01;62.53;64278.16;5065371;28;20212;-79
2023/08/20 00:44:31;;;;;;;9.40;6.75;;;;;;;21.98;63.54;64279.69;5075566;28;20220;-78
2023/08/20 00:47:00;;;;;;;7.55;6.75;;;;;;;21.86;64.05;64261.94;5056441;28;20211;-79
2023/08/20 00:49:27;;;;;;;7.93;7.22;;;;;;;21.84;64.36;64259.84;5081313;28;20228;-79
2023/08/20 00:51:54;;;;;;;7.72;7.00;;;;;;;21.71;64.37;64246.78;5065006;28;20204;-79
2023/08/20 00:54:23;;;;;;;7.82;6.68;;;;;;;21.69;64.13;64245.22;5063768;28;20389;-78
2023/08/20 00:56:52;;;;;;;8.05;7.18;;;;;;;21.62;64.27;64237.38;5065099;28;20193;-78
2023/08/20 00:59:21;;;;;;;7.07;6.47;;;;;;;21.66;64.93;64242.06;5067854;28;20213;-79
2023/08/20 01:01:49;;;;;;;7.15;6.55;;;;;;;21.66;64.79;64244.66;5069725;28;20200;-80
2023/08/20 01:04:16;;;;;;;7.18;6.47;;;;;;;21.71;65.38;64246.78;5068208;28;20244;-79
2023/08/20 01:07:03;;;;;;;11.05;7.25;;;;;;;21.74;65.57;64253.03;5073209;28;20200;-81
2023/08/20 01:09:42;;;;;;;8.80;6.38;;;;;;;21.63;66.01;64238.94;5066276;28;20212;-81
2023/08/20 01:12:11;;;;;;;8.52;7.80;;;;;;;21.63;66.32;64246.19;5070400;28;20212;-79
2023/08/20 01:14:39;;;;;;;9.48;6.90;;;;;;;21.62;66.84;64240.47;5069904;28;20234;-80
2023/08/20 01:17:07;;;;;;;6.88;6.18;;;;;;;21.56;67.04;64228.50;5068143;28;20572;-79
2023/08/20 01:19:34;;;;;;;6.63;6.10;;;;;;;21.50;67.89;64225.34;5069017;28;20274;-79
2023/08/20 01:22:16;;;;;;;7.07;6.35;;;;;;;21.44;67.75;64221.69;5066907;28;20387;-79
2023/08/20 01:25:01;;;;;;;7.22;6.55;;;;;;;21.47;68.13;64226.88;5070265;28;20330;-79
2023/08/20 01:27:42;;;;;;;8.95;6.28;;;;;;;21.49;68.06;64228.97;5067589;28;20299;-77
2023/08/20 01:30:12;;;;;;;7.72;6.10;;;;;;;21.52;68.21;64227.44;5069337;28;20201;-79
2023/08/20 01:32:41;;;;;;;7.50;6.90;;;;;;;21.49;67.95;64224.31;5058263;28;20231;-80
2023/08/20 01:35:12;;;;;;;8.27;6.18;;;;;;;21.56;68.07;64234.22;5074807;28;20193;-79
2023/08/20 01:37:41;;;;;;;9.82;6.22;;;;;;;21.56;68.01;64234.22;5070916;28;20447;-79
2023/08/20 01:40:10;;;;;;;12.32;5.85;;;;;;;21.56;67.84;64233.69;5056971;28;20259;-78
2023/08/20 01:42:37;;;;;;;7.68;4.88;;;;;;;21.52;68.00;64229.50;5068793;28;20200;-79
2023/08/20 01:45:08;;;;;;;6.55;5.95;;;;;;;21.54;68.19;64237.31;5068609;28;20364;-79
2023/08/20 01:47:37;;;;;;;6.85;6.25;;;;;;;21.58;68.49;64233.19;5069275;28;20247;-79
2023/08/20 01:50:04;;;;;;;6.07;5.55;;;;;;;21.60;68.71;64233.22;5066124;28;20220;-80
2023/08/20 01:52:30;;;;;;;7.05;6.10;;;;;;;21.57;68.78;64237.34;5068061;28;20201;-79
2023/08/20 01:54:59;;;;;;;7.00;6.30;;;;;;;21.51;69.56;64226.41;5067294;28;20526;-79
2023/08/20 01:57:26;;;;;;;6.95;6.32;;;;;;;21.42;69.90;64219.59;5068937;28;20279;-79
2023/08/20 01:59:53;;;;;;;6.95;6.25;;;;;;;21.37;70.89;64214.38;5072742;28;20236;-78
2023/08/20 02:02:20;;;;;;;6.05;5.55;;;;;;;21.31;71.07;64205.00;5067701;28;20193;-80
2023/08/20 02:04:48;;;;;;;7.03;6.45;;;;;;;21.21;71.97;64197.66;5068393;28;20223;-79
2023/08/20 02:07:16;;;;;;;8.18;6.40;;;;;;;21.14;72.82;64192.44;5069550;28;20201;-79
2023/08/20 02:09:43;;;;;;;6.43;5.82;;;;;;;21.13;72.95;64186.19;5067340;28;20231;-78
2023/08/20 02:12:10;;;;;;;7.28;6.15;;;;;;;21.06;73.63;64176.28;5061333;28;20223;-79
2023/08/20 02:14:36;;;;;;;7.07;6.38;;;;;;;20.99;74.16;64172.09;5068236;28;20247;-79
2023/08/20 02:17:03;;;;;;;7.55;6.03;;;;;;;20.88;75.50;64160.59;5066651;28;20201;-81
2023/08/20 02:19:31;;;;;;;6.20;5.70;;;;;;;20.83;76.13;64152.78;5067953;28;20220;-79
2023/08/20 02:21:59;;;;;;;7.00;6.47;;;;;;;20.80;76.69;64157.41;5072402;28;20208;-79
2023/08/20 02:24:26;;;;;;;8.45;5.38;;;;;;;20.81;76.39;64152.78;5067464;28;20300;-80
2023/08/20 02:26:53;;;;;;;6.30;5.75;;;;;;;20.73;76.87;64147.53;5063207;28;20201;-80
2023/08/20 02:29:20;;;;;;;6.43;5.78;;;;;;;20.65;77.88;64136.59;5065833;28;20497;-80
2023/08/20 02:31:47;;;;;;;6.18;5.68;;;;;;;20.59;78.49;64133.44;5069225;28;20205;-79
2023/08/20 02:34:14;;;;;;;7.35;5.93;;;;;;;20.60;77.58;64133.97;5064739;28;20240;-79
2023/08/20 02:36:41;;;;;;;6.28;5.80;;;;;;;20.54;78.13;64128.22;5072263;28;20188;-79
2023/08/20 02:39:10;;;;;;;6.90;6.28;;;;;;;20.49;78.29;64123.00;5066381;28;20283;-79
2023/08/20 02:41:37;;;;;;;6.57;6.03;;;;;;;20.48;79.03;64124.53;5074134;28;20210;-80
2023/08/20 02:44:04;;;;;;;7.00;5.90;;;;;;;20.36;80.17;64108.91;5075218;28;20226;-79
2023/08/20 02:46:31;;;;;;;6.22;5.55;;;;;;;20.34;80.37;64104.75;5067290;28;20211;-79
2023/08/20 02:48:58;;;;;;;6.13;5.63;;;;;;;20.37;80.66;64115.63;5062605;28;20295;-80
2023/08/20 02:51:27;;;;;;;7.75;6.40;;;;;;;20.41;81.16;64114.66;5068084;28;20224;-79
2023/08/20 02:53:54;;;;;;;7.05;6.50;;;;;;;20.38;81.40;64108.91;5075672;28;20411;-79
2023/08/20 02:56:22;;;;;;;6.57;6.07;;;;;;;20.39;81.68;64112.03;5065061;28;20230;-80
2023/08/20 02:58:49;;;;;;;6.13;5.63;;;;;;;20.35;82.14;64108.38;5067010;28;20232;-79
2023/08/20 03:01:21;;;;;;;6.28;5.78;;;;;;;20.33;83.12;64103.16;5065842;28;20556;-80
2023/08/20 03:03:48;;;;;;;5.68;5.22;;;;;;;20.23;83.99;64092.75;5066712;28;20229;-81
2023/08/20 03:06:16;;;;;;;11.25;5.82;;;;;;;20.30;83.29;64103.16;5070244;28;20259;-80
2023/08/20 03:08:43;;;;;;;6.03;5.45;;;;;;;20.27;83.44;64096.91;5069686;28;20238;-80
2023/08/20 03:11:10;;;;;;;6.32;5.70;;;;;;;20.28;83.96;64101.06;5065857;28;20211;-80
2023/08/20 03:13:39;;;;;;;6.32;5.80;;;;;;;20.27;83.32;64099.50;5067566;28;20545;-80
2023/08/20 03:16:06;;;;;;;8.98;5.72;;;;;;;20.30;83.34;64105.22;5067052;28;20222;-79
2023/08/20 03:18:33;;;;;;;9.20;6.07;;;;;;;20.30;83.79;64097.47;5067966;28;20231;-78
2023/08/20 03:21:00;;;;;;;6.25;5.38;;;;;;;20.35;83.78;64105.78;5069186;28;20216;-78
2023/08/20 03:23:28;;;;;;;5.90;5.50;;;;;;;20.32;84.28;64104.72;5067335;28;20248;-79
2023/08/20 03:25:58;;;;;;;6.40;5.55;;;;;;;20.27;84.55;64094.88;5057598;28;20224;-79
2023/08/20 03:28:25;;;;;;;6.63;6.03;;;;;;;20.28;84.94;64097.97;5049170;28;20236;-79
2023/08/20 03:30:53;;;;;;;6.05;5.38;;;;;;;20.24;85.56;64093.78;5071749;28;20470;-80
2023/08/20 03:33:20;;;;;;;6.38;5.78;;;;;;;20.28;85.94;64095.38;5067331;28;20216;-80
2023/08/20 03:35:47;;;;;;;6.03;5.53;;;;;;;20.28;85.92;64095.91;5067826;28;20580;-79
2023/08/20 03:38:14;;;;;;;6.82;5.90;;;;;;;20.30;85.91;64098.00;5064983;28;20291;-78
2023/08/20 03:40:41;;;;;;;5.45;5.05;;;;;;;20.35;85.91;64108.38;5070047;28;20198;-78
2023/08/20 03:43:08;;;;;;;7.03;5.00;;;;;;;20.40;86.49;64110.47;5069137;28;20236;-78
2023/08/20 03:45:35;;;;;;;6.57;5.40;;;;;;;20.38;86.96;64111.00;5066485;28;20204;-80
2023/08/20 03:48:04;;;;;;;5.28;4.97;;;;;;;20.41;86.95;64111.53;5067895;28;20207;-80
2023/08/20 03:50:31;;;;;;;6.05;5.65;;;;;;;20.40;86.91;64113.06;5079285;28;20268;-79
2023/08/20 03:52:59;;;;;;;5.88;5.38;;;;;;;20.40;87.31;64107.91;5066162;28;20204;-79
2023/08/20 03:55:26;;;;;;;7.75;5.43;;;;;;;20.41;87.10;64111.53;5065652;28;20213;-79
2023/08/20 03:57:53;;;;;;;6.70;5.93;;;;;;;20.46;86.15;64116.75;5067153;28;20229;-80
2023/08/20 04:00:20;;;;;;;6.15;5.55;;;;;;;20.51;87.12;64124.56;5065142;28;20261;-79
2023/08/20 04:02:47;;;;;;;5.80;5.30;;;;;;;20.50;86.84;64123.53;5066042;28;20208;-80
2023/08/20 04:05:16;;;;;;;7.88;5.43;;;;;;;20.56;86.37;64130.31;5064539;28;20193;-80
2023/08/20 04:07:43;;;;;;;6.50;5.82;;;;;;;20.59;85.03;64130.84;5065986;28;20259;-79
2023/08/20 04:10:10;;;;;;;6.22;5.63;;;;;;;20.61;83.95;64130.34;5063550;28;20270;-81
2023/08/20 04:12:37;;;;;;;6.07;5.63;;;;;;;20.64;83.64;64143.28;5067231;28;20275;-78
2023/08/20 04:15:05;;;;;;;5.93;5.43;;;;;;;20.76;84.39;64147.56;5068107;28;20220;-80
2023/08/20 04:17:32;;;;;;;5.93;5.53;;;;;;;20.75;82.92;64149.09;5068773;28;20224;-78
2023/08/20 04:19:59;;;;;;;6.53;5.93;;;;;;;20.75;81.56;64144.44;5067087;28;20236;-80
2023/08/20 04:22:30;;;;;;;9.32;5.50;;;;;;;20.86;82.57;64158.50;5065365;28;20212;-80
2023/08/20 04:24:57;;;;;;;7.45;5.82;;;;;;;20.89;82.12;64161.63;5066999;28;20289;-79
2023/08/20 04:27:24;;;;;;;6.45;5.47;;;;;;;20.94;82.11;64166.84;5061935;28;20196;-80
2023/08/20 04:29:52;;;;;;;7.47;5.50;;;;;;;20.94;83.17;64163.75;5065653;28;20323;-80
2023/08/20 04:32:19;;;;;;;5.88;5.38;;;;;;;20.88;84.36;64154.91;5064681;28;20490;-80
2023/08/20 04:34:47;;;;;;;6.53;5.90;;;;;;;20.91;84.10;64163.22;5066716;28;20247;-79
2023/08/20 04:37:15;;;;;;;6.32;5.72;;;;;;;21.00;83.05;64175.72;5063625;28;20212;-78
2023/08/20 04:39:43;;;;;;;6.45;5.85;;;;;;;20.89;85.88;64164.22;5070222;28;20262;-79
2023/08/20 04:42:10;;;;;;;8.27;6.70;;;;;;;20.80;85.59;64157.41;5067527;28;20204;-79
2023/08/20 04:44:37;;;;;;;7.15;6.45;;;;;;;20.77;86.88;64143.94;5072662;28;20203;-81
2023/08/20 04:47:04;;;;;;;6.60;6.00;;;;;;;20.81;86.43;64152.78;5065897;28;20208;-79
2023/08/20 04:49:31;;;;;;;7.18;6.60;;;;;;;20.92;83.96;64167.34;5067062;28;20244;-79
2023/08/20 04:51:58;;;;;;;7.00;6.18;;;;;;;20.97;82.64;64169.47;5065686;28;20203;-79
2023/08/20 04:54:25;;;;;;;6.15;5.43;;;;;;;21.19;79.39;64190.38;5066183;28;20243;-79
2023/08/20 04:56:54;;;;;;;6.72;5.55;;;;;;;21.36;77.88;64213.34;5067324;28;20231;-80
2023/08/20 04:59:21;;;;;;;5.72;5.22;;;;;;;21.56;76.98;64233.69;5065396;28;20269;-79
2023/08/20 05:01:48;;;;;;;5.20;4.80;;;;;;;21.67;75.55;64242.59;5068167;28;20208;-80
2023/08/20 05:04:15;;;;;;;7.97;5.57;;;;;;;21.90;72.30;64271.31;5066762;28;20221;-79
2023/08/20 05:06:42;;;;;;;5.82;5.43;;;;;;;22.05;70.84;64279.22;5067203;28;20213;-78
2023/08/20 05:09:10;;;;;;;6.82;5.30;;;;;;;22.45;70.77;64328.81;5069655;28;20255;-80
2023/08/20 05:11:37;;;;;;;5.93;5.43;;;;;;;22.66;69.05;64351.31;5067280;28;20220;-80
2023/08/20 05:14:06;;;;;;;6.43;5.93;;;;;;;22.87;66.62;64370.66;5067428;28;20220;-81
2023/08/20 05:16:33;;;;;;;8.35;5.53;;;;;;;23.17;64.13;64398.94;5067641;28;20205;-79
2023/08/20 05:19:00;;;;;;;8.43;5.05;;;;;;;23.38;61.51;64423.00;5066731;28;20525;-80
2023/08/20 05:21:27;;;;;;;5.95;5.47;;;;;;;23.60;63.17;64440.81;5070165;28;20298;-80
2023/08/20 05:23:55;;;;;;;5.82;5.32;;;;;;;23.85;61.48;64472.16;5068089;28;20278;-80
2023/08/20 05:26:23;;;;;;;7.18;5.50;;;;;;;24.04;59.49;64494.66;5080490;28;20201;-80
2023/08/20 05:28:50;;;;;;;6.40;5.28;;;;;;;24.21;57.99;64507.28;5058581;28;20244;-80
2023/08/20 05:31:19;;;;;;;6.40;5.28;;;;;;;24.19;58.76;64502.03;5065537;28;20204;-81
2023/08/20 05:33:45;;;;;;;5.75;5.18;;;;;;;24.33;58.41;64524.50;5067383;28;20209;-79
2023/08/20 05:36:12;;;;;;;5.93;5.43;;;;;;;24.50;58.56;64537.09;5064532;28;20203;-80
2023/08/20 05:38:42;;;;;;;5.68;5.18;;;;;;;24.62;59.83;64550.19;5064225;28;20227;-78
2023/08/20 05:41:10;;;;;;;7.10;5.50;;;;;;;24.46;62.52;64538.13;5066942;28;20513;-80
2023/08/20 05:43:37;;;;;;;7.80;6.30;;;;;;;24.30;64.48;64516.69;5067016;28;20565;-79
2023/08/20 05:46:04;;;;;;;6.43;5.78;;;;;;;24.34;64.81;64523.47;5064041;28;20260;-80
2023/08/20 05:48:33;;;;;;;7.63;6.18;;;;;;;24.43;64.43;64532.91;5074168;28;20228;-77
2023/08/20 05:51:00;;;;;;;13.02;6.50;;;;;;;24.28;64.69;64517.19;5071255;28;20221;-77
2023/08/20 05:53:27;;;;;;;7.22;6.53;;;;;;;24.32;64.52;64521.38;5076076;28;20468;-78
2023/08/20 05:55:54;;;;;;;7.57;6.88;;;;;;;24.44;63.89;64531.34;5066255;28;20204;-79
2023/08/20 05:58:21;;;;;;;10.23;6.78;;;;;;;24.62;64.35;64552.81;5070481;28;20228;-79
2023/08/20 06:00:48;;;;;;;6.57;5.97;;;;;;;24.66;64.48;64559.06;5063731;28;20198;-80
2023/08/20 06:03:16;;;;;;;12.88;6.55;;;;;;;24.77;65.42;64565.91;5069682;28;20538;-80
2023/08/20 06:05:46;;;;;;;6.07;5.60;;;;;;;24.84;64.18;64570.13;5072073;28;20541;-79
2023/08/20 06:08:13;;;;;;;8.27;6.18;;;;;;;24.90;61.15;64581.63;5073141;28;20245;-80
2023/08/20 06:10:40;;;;;;;9.23;5.72;;;;;;;25.12;63.52;64604.66;5073660;28;20232;-81
2023/08/20 06:13:07;;;;;;;6.20;5.65;;;;;;;25.19;61.14;64609.38;5069664;28;20232;-82
2023/08/20 06:15:35;;;;;;;6.03;5.50;;;;;;;25.32;62.28;64623.00;5070067;28;20264;-79
2023/08/20 06:18:02;;;;;;;6.78;6.20;;;;;;;25.42;62.98;64630.88;5070395;28;20224;-80
2023/08/20 06:20:29;;;;;;;9.25;7.15;;;;;;;25.70;61.54;64668.06;5069045;28;20211;-79
2023/08/20 06:22:57;;;;;;;6.40;5.85;;;;;;;25.91;56.34;64686.94;5069858;28;20223;-81
2023/08/20 06:25:24;;;;;;;6.15;5.55;;;;;;;25.88;57.98;64679.09;5069948;28;20208;-79
2023/08/20 06:27:51;;;;;;;5.40;4.90;;;;;;;25.89;56.18;64685.34;5067436;28;20393;-78
2023/08/20 06:30:18;;;;;;;10.43;5.68;;;;;;;26.17;53.96;64717.34;5065539;28;20256;-80
2023/08/20 06:32:46;;;;;;;5.88;4.90;;;;;;;26.41;53.40;64739.38;5084346;28;20200;-79
2023/08/20 06:35:13;;;;;;;6.03;5.53;;;;;;;26.56;52.40;64757.72;5078525;28;20207;-80
2023/08/20 06:37:42;;;;;;;5.47;5.07;;;;;;;26.61;51.36;64757.72;5069268;28;20268;-80
2023/08/20 06:40:16;;;;;;;5.38;5.00;;;;;;;26.83;50.23;64783.44;5064808;28;20197;-81
2023/08/20 06:42:44;;;;;;;5.75;4.80;;;;;;;26.94;49.72;64791.81;5071138;28;20188;-78
2023/08/20 06:45:11;;;;;;;5.55;5.15;;;;;;;27.01;48.80;64799.69;5066816;28;20205;-79
2023/08/20 06:47:38;;;;;;;6.20;5.63;;;;;;;26.84;49.32;64781.34;5074773;28;20265;-80
2023/08/20 06:50:06;;;;;;;5.55;5.10;;;;;;;26.85;48.25;64790.75;5068513;28;20237;-79
2023/08/20 06:52:33;;;;;;;6.43;5.50;;;;;;;26.90;48.42;64788.19;5067639;28;20208;-80
2023/08/20 06:55:00;;;;;;;9.40;5.63;;;;;;;26.84;49.82;64781.34;5068888;28;20212;-81
2023/08/20 06:57:29;;;;;;;5.72;5.18;;;;;;;26.99;48.56;64800.22;5064278;28;20244;-78
2023/08/20 06:59:56;;;;;;;5.75;5.30;;;;;;;27.00;49.19;64800.75;5064561;28;20262;-79
2023/08/20 07:02:23;;;;;;;4.88;4.53;;;;;;;27.06;49.08;64807.56;5067646;28;20231;-80
2023/08/20 07:04:50;;;;;;;5.20;4.75;;;;;;;26.96;49.09;64794.47;5068484;28;20563;-78
2023/08/20 07:07:17;;;;;;;6.35;5.45;;;;;;;26.92;48.87;64792.34;5061636;28;20275;-80
2023/08/20 07:09:44;;;;;;;5.38;4.95;;;;;;;27.08;48.67;64809.13;5068023;28;20242;-78
2023/08/20 07:12:11;;;;;;;5.65;5.15;;;;;;;27.19;48.63;64818.06;5066092;28;20193;-80
2023/08/20 07:14:40;;;;;;;5.57;5.07;;;;;;;27.02;47.40;64800.22;5067634;28;20216;-79
2023/08/20 07:17:07;;;;;;;7.53;4.53;;;;;;;27.15;48.33;64814.38;5054430;28;20208;-78
2023/08/20 07:19:34;;;;;;;5.75;5.40;;;;;;;27.22;48.05;64824.34;5068399;28;20259;-78
2023/08/20 07:22:00;;;;;;;4.93;4.63;;;;;;;27.15;48.49;64817.00;5068883;28;20212;-80
2023/08/20 07:24:29;;;;;;;5.80;5.40;;;;;;;27.40;47.88;64842.72;5062884;28;20566;-80
2023/08/20 07:27:00;;;;;;;5.80;5.32;;;;;;;27.46;47.07;64846.41;5068782;28;20224;-80
2023/08/20 07:29:29;;;;;;;7.20;5.05;;;;;;;27.57;47.81;64860.56;5069046;28;20236;-78
2023/08/20 07:32:03;;;;;;;5.25;4.93;;;;;;;27.61;46.72;64864.75;5065861;28;20203;-81
2023/08/20 07:34:33;;;;;;;5.80;5.38;;;;;;;27.62;47.36;64860.06;5067857;28;20231;-79
2023/08/20 07:37:00;;;;;;;6.55;5.95;;;;;;;27.67;47.77;64870.53;5068899;28;20389;-79
2023/08/20 07:39:28;;;;;;;5.50;4.72;;;;;;;27.47;46.98;64852.69;5070160;28;20538;-81
2023/08/20 07:41:55;;;;;;;5.60;5.18;;;;;;;27.41;46.69;64841.16;5068374;28;20405;-81
2023/08/20 07:44:22;;;;;;;5.68;5.25;;;;;;;27.55;47.33;64861.09;5077858;28;20413;-81
2023/08/20 07:46:49;;;;;;;5.18;4.88;;;;;;;27.46;47.56;64848.50;5067822;28;20204;-79
2023/08/20 07:49:18;;;;;;;5.50;5.10;;;;;;;27.58;47.36;64861.63;5057651;28;20410;-81
2023/08/20 07:51:45;;;;;;;5.82;5.32;;;;;;;27.70;47.26;64876.81;5055712;28;20385;-80
2023/08/20 07:54:12;;;;;;;5.13;4.68;;;;;;;27.87;46.42;64889.44;5077793;28;20208;-80
2023/08/20 07:56:40;;;;;;;5.75;5.15;;;;;;;27.89;45.66;64894.16;5071850;28;20215;-79
2023/08/20 07:59:07;;;;;;;5.35;4.90;;;;;;;27.73;46.97;64877.38;5067896;28;20258;-79
2023/08/20 08:01:35;;;;;;;5.65;5.25;;;;;;;27.88;47.13;64895.19;5072411;28;20224;-79
2023/08/20 08:04:02;;;;;;;6.43;5.00;;;;;;;27.85;44.25;64892.59;5082285;28;20587;-79
2023/08/20 08:06:30;;;;;;;5.00;4.70;;;;;;;27.74;44.05;64875.78;5069166;28;20269;-78
2023/08/20 08:08:57;;;;;;;5.03;4.70;;;;;;;27.52;43.99;64855.31;5066484;28;20263;-77
2023/08/20 08:11:25;;;;;;;5.45;4.95;;;;;;;27.65;45.02;64865.81;5067752;28;20306;-78
2023/08/20 08:13:52;;;;;;;6.70;4.88;;;;;;;27.77;44.19;64876.31;5070183;28;20259;-80
2023/08/20 08:16:20;;;;;;;4.93;4.38;;;;;;;27.89;43.56;64896.78;5061914;28;20196;-79
2023/08/20 08:18:47;;;;;;;7.78;4.25;;;;;;;28.08;40.57;64918.81;5069833;28;20248;-80
2023/08/20 08:21:16;;;;;;;5.57;4.28;;;;;;;27.74;42.29;64881.03;5066718;28;20216;-80
2023/08/20 08:23:46;;;;;;;6.00;4.22;;;;;;;27.86;42.41;64890.47;5070050;28;20228;-81
2023/08/20 08:26:15;;;;;;;4.43;4.15;;;;;;;27.93;42.48;64895.75;5065873;28;20307;-80
2023/08/20 08:28:43;;;;;;;4.55;4.30;;;;;;;27.86;41.54;64895.72;5068547;28;20593;-79
2023/08/20 08:31:10;;;;;;;5.22;4.63;;;;;;;27.75;42.21;64882.06;5069710;28;20274;-80
2023/08/20 08:33:37;;;;;;;4.68;4.38;;;;;;;27.81;42.64;64885.75;5070991;28;20213;-80
2023/08/20 08:36:05;;;;;;;4.35;4.10;;;;;;;27.82;41.05;64886.81;5066170;28;20203;-78
2023/08/20 08:38:33;;;;;;;6.00;4.43;;;;;;;27.81;40.57;64880.00;5067749;28;20220;-82
2023/08/20 08:41:03;;;;;;;4.78;4.50;;;;;;;27.51;41.81;64853.75;5067766;28;20200;-80
2023/08/20 08:43:33;;;;;;;4.38;4.15;;;;;;;27.76;42.67;64885.75;5067373;28;20220;-81
2023/08/20 08:46:03;;;;;;;4.60;4.30;;;;;;;27.87;40.22;64886.81;5066991;28;20406;-79
2023/08/20 08:48:30;;;;;;;5.95;4.95;;;;;;;27.90;40.91;64897.84;5067749;28;20227;-79
2023/08/20 08:50:58;;;;;;;7.95;6.13;;;;;;;28.10;42.10;64913.59;5068394;28;20216;-83
2023/08/20 08:53:27;;;;;;;8.35;6.85;;;;;;;28.36;40.93;64943.00;5063030;28;20225;-81
2023/08/20 08:55:54;;;;;;;5.20;4.75;;;;;;;28.53;39.18;64963.47;5061656;28;20203;-81
2023/08/20 08:58:23;;;;;;;6.15;5.55;;;;;;;28.79;39.65;64985.53;5069796;28;21067;-81
2023/08/20 09:00:51;;;;;;;5.30;4.68;;;;;;;28.94;37.72;65001.28;5065296;28;20252;-80
2023/08/20 09:03:24;;;;;;;3.80;3.60;;;;;;;29.07;36.32;65017.59;5067438;28;20462;-82
2023/08/20 09:05:56;;;;;;;4.28;3.88;;;;;;;29.04;36.15;65013.91;5066306;28;20347;-84
2023/08/20 09:08:24;;;;;;;4.43;4.22;;;;;;;28.90;36.53;65001.81;5067754;28;20229;-82
2023/08/20 09:10:52;;;;;;;4.28;4.00;;;;;;;28.88;37.21;65000.25;5069162;28;20235;-80
2023/08/20 09:13:23;;;;;;;4.40;4.10;;;;;;;29.07;38.51;65019.69;5070593;28;20322;-81
2023/08/20 09:15:54;;;;;;;13.98;5.75;;;;;;;29.28;37.81;65039.69;5070243;28;20216;-79
2023/08/20 09:18:21;;;;;;;11.77;5.95;;;;;;;29.38;38.27;65049.66;5064495;28;20243;-81
2023/08/20 09:20:50;;;;;;;4.32;4.03;;;;;;;29.49;37.99;65056.47;5070856;28;20207;-82
2023/08/20 09:23:18;;;;;;;5.45;4.30;;;;;;;29.34;37.25;65045.97;5071389;28;20561;-80
2023/08/20 09:25:46;;;;;;;3.83;3.53;;;;;;;29.10;37.66;65015.50;5079185;28;20226;-81
2023/08/20 09:28:16;;;;;;;4.95;4.65;;;;;;;29.12;38.10;65027.56;5069772;28;20513;-83
2023/08/20 09:31:02;;;;;;;8.50;4.30;;;;;;;29.16;38.51;65031.78;5069882;28;20255;-81
2023/08/20 09:33:31;;;;;;;10.63;4.85;;;;;;;29.20;40.01;65030.75;5071582;28;20216;-82
2023/08/20 09:35:58;;;;;;;5.40;4.43;;;;;;;29.29;36.81;65043.34;5069487;28;20291;-82
2023/08/20 09:38:26;;;;;;;4.38;3.97;;;;;;;29.35;36.44;65043.88;5058133;28;20435;-78
2023/08/20 09:40:56;;;;;;;5.28;3.78;;;;;;;29.30;35.50;65039.13;5086755;28;20207;-82
2023/08/20 09:43:27;;;;;;;3.78;3.58;;;;;;;29.15;35.57;65026.00;5057574;28;20230;-82
2023/08/20 09:45:57;;;;;;;4.25;3.95;;;;;;;29.14;36.31;65027.59;5067989;28;20259;-84
2023/08/20 09:48:29;;;;;;;4.40;4.00;;;;;;;29.28;36.98;65039.16;5072398;28;20239;-83
2023/08/20 09:51:01;;;;;;;4.07;3.15;;;;;;;29.29;35.20;65040.19;5072378;28;20228;-83
2023/08/20 09:53:35;;;;;;;4.47;3.28;;;;;;;29.36;35.13;65042.28;5071543;28;20220;-79
2023/08/20 09:56:16;;;;;;;3.60;3.30;;;;;;;29.18;34.98;65028.63;5069716;28;20239;-80
2023/08/20 09:58:45;;;;;;;3.45;3.17;;;;;;;29.14;35.74;65027.59;5065561;28;20225;-79
2023/08/20 10:01:14;;;;;;;3.03;2.90;;;;;;;29.31;33.72;65042.81;5055597;28;20211;-78
2023/08/20 10:03:43;;;;;;;3.28;3.08;;;;;;;29.05;33.70;65020.19;5058010;28;20220;-78
2023/08/20 10:06:12;;;;;;;3.15;3.05;;;;;;;28.99;34.62;65008.66;5082891;28;20196;-80
2023/08/20 10:08:40;;;;;;;3.35;3.25;;;;;;;29.12;34.48;65022.31;5072999;28;20353;-80
2023/08/20 10:11:07;;;;;;;3.58;2.95;;;;;;;29.34;34.42;65045.44;5071543;28;20232;-83
2023/08/20 10:13:34;;;;;;;3.25;3.08;;;;;;;29.54;33.23;65063.84;5060197;28;20224;-80
2023/08/20 10:16:01;;;;;;;3.80;3.28;;;;;;;29.50;34.38;65067.50;5079866;28;20495;-79
2023/08/20 10:18:30;;;;;;;3.30;3.10;;;;;;;29.38;36.20;65047.03;5050802;28;20308;-82
2023/08/20 10:20:59;;;;;;;3.55;3.22;;;;;;;29.60;37.38;65074.88;5063022;28;20200;-80
2023/08/20 10:23:26;;;;;;;5.32;3.40;;;;;;;29.81;36.46;65094.31;5083745;28;20578;-81
2023/08/20 10:25:53;;;;;;;3.13;2.92;;;;;;;29.99;33.10;65113.78;5079349;28;20256;-82
2023/08/20 10:28:25;;;;;;;3.50;3.20;;;;;;;29.69;33.50;65084.88;5083300;28;20254;-81
2023/08/20 10:31:09;;;;;;;3.65;3.47;;;;;;;29.71;34.68;65083.81;5058553;28;20229;-81
2023/08/20 10:33:39;;;;;;;6.72;3.65;;;;;;;29.77;35.43;65090.13;5070344;28;20250;-80
2023/08/20 10:36:11;;;;;;;4.05;3.72;;;;;;;29.86;36.21;65102.22;5074386;28;20192;-83
2023/08/20 10:38:39;;;;;;;4.10;3.80;;;;;;;30.13;35.72;65125.34;5067587;28;20222;-83
2023/08/20 10:41:12;;;;;;;3.33;3.10;;;;;;;30.22;34.50;65140.06;5053491;28;20221;-84
2023/08/20 10:43:41;;;;;;;3.72;3.53;;;;;;;30.38;33.85;65157.44;5065684;28;20221;-80
2023/08/20 10:46:16;;;;;;;4.65;3.40;;;;;;;30.15;33.77;65130.59;5070345;28;20235;-81
2023/08/20 10:48:49;;;;;;;4.50;4.13;;;;;;;30.19;35.54;65134.81;5070381;28;20235;-80
2023/08/20 10:51:18;;;;;;;3.80;3.60;;;;;;;30.45;36.72;65162.16;5083578;28;20242;-83
2023/08/20 10:54:03;;;;;;;3.85;3.63;;;;;;;30.52;35.69;65174.25;5067803;28;20263;-81
2023/08/20 10:56:41;;;;;;;4.22;3.40;;;;;;;30.53;34.90;65167.94;5068906;28;20200;-81
2023/08/20 10:59:10;;;;;;;3.92;3.67;;;;;;;30.29;34.75;65145.34;5067383;28;20310;-81
2023/08/20 11:01:37;;;;;;;4.15;3.72;;;;;;;29.88;35.34;65101.69;5074647;28;20196;-82
2023/08/20 11:04:07;;;;;;;3.88;3.67;;;;;;;30.11;36.64;65121.16;5084615;28;20224;-83
2023/08/20 11:06:34;;;;;;;5.82;3.78;;;;;;;30.09;35.02;65123.75;5067582;28;20212;-82
2023/08/20 11:09:03;;;;;;;4.13;3.72;;;;;;;29.93;35.69;65102.22;5066876;28;20213;-79
2023/08/20 11:11:31;;;;;;;3.45;3.25;;;;;;;29.96;34.73;65108.00;5066102;28;20233;-83
2023/08/20 11:13:58;;;;;;;3.13;2.95;;;;;;;29.87;34.39;65101.19;5069308;28;20231;-82
2023/08/20 11:16:30;;;;;;;4.10;3.85;;;;;;;30.14;34.51;65129.03;5076400;28;20267;-84
2023/08/20 11:18:58;;;;;;;3.63;3.08;;;;;;;30.43;35.33;65159.53;5071322;28;20279;-80
2023/08/20 11:21:26;;;;;;;4.38;3.72;;;;;;;30.35;34.94;65151.13;5067319;28;20200;-80
2023/08/20 11:23:55;;;;;;;3.80;3.60;;;;;;;30.33;34.58;65151.66;5074120;28;20308;-81
2023/08/20 11:26:22;;;;;;;3.42;3.33;;;;;;;30.26;35.32;65144.81;5072344;28;20220;-79
2023/08/20 11:28:50;;;;;;;3.40;3.30;;;;;;;30.18;35.69;65133.75;5067994;28;20217;-84
2023/08/20 11:31:18;;;;;;;7.63;4.00;;;;;;;30.40;35.49;65153.75;5067981;28;20229;-83
2023/08/20 11:33:47;;;;;;;4.25;3.85;;;;;;;30.70;37.09;65187.94;5073786;28;20212;-80
2023/08/20 11:36:17;;;;;;;4.00;3.63;;;;;;;30.79;35.93;65197.41;5082488;28;20231;-79
2023/08/20 11:38:51;;;;;;;3.25;3.03;;;;;;;30.99;36.04;65223.72;5071297;28;20255;-83
2023/08/20 11:41:18;;;;;;;4.00;3.80;;;;;;;31.07;33.23;65224.25;5067938;28;20216;-83